Time;durP1;ratioP1;P1;durP2;ratioP2;P2;SDS_P1;SDS_P2;PMS_P1;PMS_P2;Temp;Humidity;BMP_temperature;BMP_pressure;BME280_temperature;BME280_humidity;BME280_pressure;Samples;Min_cycle;Max_cycle;Signal;HPM_P1;HPM_P2
2023/04/06 00:00:08;;;;;;;287.50;80.15;;;;;;;4.52;74.04;99364.41;330096;29;4059;-79
2023/04/06 00:00:19;;;;;;;284.77;79.47;;;;;;;4.45;73.90;99352.44;338042;29;1390;-79
2023/04/06 00:00:30;;;;;;;287.77;80.68;;;;;;;4.54;73.94;99357.44;339075;29;1491;-79
2023/04/06 00:00:40;;;;;;;288.93;80.73;;;;;;;4.58;73.87;99362.53;337198;29;3560;-79
2023/04/06 00:00:50;;;;;;;288.90;81.15;;;;;;;4.58;73.59;99353.91;336636;29;1978;-80
2023/04/06 00:01:01;;;;;;;288.90;82.17;;;;;;;4.58;73.52;99359.09;335531;29;3867;-79
2023/04/06 00:01:11;;;;;;;288.45;81.47;;;;;;;4.58;73.42;99354.78;334515;29;2434;-79
2023/04/06 00:01:22;;;;;;;287.47;81.97;;;;;;;4.52;73.43;99354.03;332681;29;3241;-79
2023/04/06 00:01:32;;;;;;;285.88;80.13;;;;;;;4.49;73.74;99354.94;333558;29;2970;-79
2023/04/06 00:01:45;;;;;;;286.93;80.17;;;;;;;4.52;73.77;99359.22;331979;29;3148;-79
2023/04/06 00:01:55;;;;;;;284.80;78.05;;;;;;;4.48;74.02;99352.41;335607;29;3053;-79
2023/04/06 00:02:06;;;;;;;283.30;78.10;;;;;;;4.42;73.81;99337.81;335787;29;3194;-79
2023/04/06 00:02:16;;;;;;;282.92;78.50;;;;;;;4.53;73.79;99353.16;329714;29;4213;-79
2023/04/06 00:02:26;;;;;;;286.47;79.30;;;;;;;4.51;73.40;99347.16;328244;29;2701;-79
2023/04/06 00:02:37;;;;;;;288.40;79.40;;;;;;;4.47;73.45;99345.50;328841;29;3148;-79
2023/04/06 00:02:47;;;;;;;290.03;80.63;;;;;;;4.42;73.81;99336.97;328590;29;3492;-79
2023/04/06 00:02:58;;;;;;;288.13;80.82;;;;;;;4.43;73.88;99343.84;328818;29;3891;-79
2023/04/06 00:03:08;;;;;;;287.27;82.23;;;;;;;4.47;74.01;99345.50;331658;29;3563;-79
2023/04/06 00:03:19;;;;;;;286.27;81.53;;;;;;;4.43;74.10;99344.72;331789;29;1097;-79
2023/04/06 00:03:30;;;;;;;287.40;82.07;;;;;;;4.40;74.37;99349.09;323676;30;3869;-78
2023/04/06 00:03:40;;;;;;;285.35;80.10;;;;;;;4.40;74.28;99343.91;322885;30;1921;-79
2023/04/06 00:03:50;;;;;;;285.30;80.18;;;;;;;4.40;74.35;99342.19;321935;30;4049;-79
2023/04/06 00:04:01;;;;;;;283.90;81.03;;;;;;;4.41;74.34;99349.06;328666;29;3457;-79
2023/04/06 00:04:11;;;;;;;284.92;81.25;;;;;;;4.42;74.19;99350.78;323873;30;3972;-79
2023/04/06 00:04:22;;;;;;;287.23;82.93;;;;;;;4.33;74.17;99331.09;325415;30;3566;-79
2023/04/06 00:04:32;;;;;;;288.48;82.53;;;;;;;4.42;74.19;99347.34;325289;30;3991;-80
2023/04/06 00:04:43;;;;;;;289.43;83.87;;;;;;;4.43;74.18;99349.03;318674;30;3587;-79
2023/04/06 00:04:53;;;;;;;289.02;83.53;;;;;;;4.44;74.22;99350.75;315929;30;4009;-79
2023/04/06 00:05:04;;;;;;;289.27;83.57;;;;;;;4.44;74.11;99345.56;314002;31;3142;-79
2023/04/06 00:05:15;;;;;;;288.77;82.00;;;;;;;4.48;73.91;99344.63;312259;31;3507;-79
2023/04/06 00:05:27;;;;;;;289.08;80.95;;;;;;;4.46;74.13;99346.38;311834;31;3284;-79
2023/04/06 00:05:37;;;;;;;287.55;79.72;;;;;;;4.48;74.13;99336.84;312215;31;3465;-81
2023/04/06 00:05:48;;;;;;;284.10;77.85;;;;;;;4.48;74.33;99339.44;310657;31;1232;-79
2023/04/06 00:05:58;;;;;;;284.17;79.43;;;;;;;4.51;74.30;99352.34;311665;31;5490;-79
2023/04/06 00:06:09;;;;;;;285.65;80.82;;;;;;;4.50;74.21;99345.44;316731;31;2560;-79
2023/04/06 00:06:19;;;;;;;287.33;83.63;;;;;;;4.48;74.18;99347.22;310313;31;3304;-79
2023/04/06 00:06:30;;;;;;;287.65;82.90;;;;;;;4.41;74.27;99335.25;313565;31;3919;-79
2023/04/06 00:06:41;;;;;;;289.07;83.60;;;;;;;4.43;74.41;99355.06;313003;31;3719;-79
2023/04/06 00:06:51;;;;;;;288.67;81.97;;;;;;;4.45;74.45;99352.44;306820;31;4352;-79
2023/04/06 00:07:02;;;;;;;291.13;83.90;;;;;;;4.39;74.24;99347.41;301793;32;5272;-79
2023/04/06 00:07:12;;;;;;;290.50;84.18;;;;;;;4.38;74.01;99341.34;301969;31;5824;-80
2023/04/06 00:07:23;;;;;;;292.57;84.80;;;;;;;4.39;74.41;99342.22;299338;32;5706;-79
2023/04/06 00:07:33;;;;;;;293.37;83.10;;;;;;;4.34;74.52;99344.91;303252;32;4338;-79
2023/04/06 00:07:44;;;;;;;295.20;83.67;;;;;;;4.33;74.26;99345.81;297173;32;4224;-79
2023/04/06 00:07:55;;;;;;;289.45;81.70;;;;;;;4.33;74.34;99344.03;298272;32;4358;-79
2023/04/06 00:08:06;;;;;;;289.70;82.72;;;;;;;4.34;74.31;99340.56;297567;32;4430;-79
2023/04/06 00:08:16;;;;;;;288.20;83.13;;;;;;;4.37;74.36;99338.81;297641;33;2978;-79
2023/04/06 00:08:27;;;;;;;288.50;84.03;;;;;;;4.35;74.18;99342.28;295916;32;4284;-79
2023/04/06 00:08:37;;;;;;;287.50;82.10;;;;;;;4.34;74.11;99342.31;294224;32;4928;-78
2023/04/06 00:08:48;;;;;;;287.15;81.53;;;;;;;4.34;74.56;99343.16;295256;33;3229;-78
2023/04/06 00:08:58;;;;;;;292.47;82.30;;;;;;;4.32;74.65;99339.78;289921;33;5599;-79
2023/04/06 00:09:09;;;;;;;292.90;83.53;;;;;;;4.37;74.53;99346.56;289227;33;6231;-79
2023/04/06 00:09:19;;;;;;;293.60;84.30;;;;;;;4.37;74.41;99339.66;289261;33;4129;-79
2023/04/06 00:09:30;;;;;;;289.85;84.03;;;;;;;4.33;74.45;99333.69;286733;34;7670;-79
2023/04/06 00:09:40;;;;;;;289.73;84.20;;;;;;;4.34;74.74;99340.56;284888;34;6318;-79
2023/04/06 00:09:51;;;;;;;291.67;84.57;;;;;;;4.25;74.32;99322.66;282872;34;5694;-78
2023/04/06 00:10:02;;;;;;;292.63;84.60;;;;;;;4.34;74.57;99335.38;285694;34;3194;-78
2023/04/06 00:10:12;;;;;;;292.80;84.72;;;;;;;4.41;74.06;99345.63;282798;34;5977;-79
2023/04/06 00:10:23;;;;;;;289.73;83.47;;;;;;;4.40;74.24;99338.75;282689;34;4442;-79
2023/04/06 00:10:33;;;;;;;288.60;83.88;;;;;;;4.40;74.01;99338.75;280958;35;4180;-79
2023/04/06 00:10:44;;;;;;;292.23;84.40;;;;;;;4.41;74.28;99340.44;275081;35;5524;-79
2023/04/06 00:10:54;;;;;;;297.00;84.18;;;;;;;4.45;74.46;99342.09;272971;35;8419;-79
2023/04/06 00:12:28;;;;;;;271.91;73.02;;;;;;;4.48;74.37;99342.03;2477589;27;20475;-79
2023/04/06 00:12:38;;;;;;;279.70;77.33;;;;;;;4.47;74.11;99338.59;351541;27;3137;-79
2023/04/06 00:12:48;;;;;;;281.45;79.72;;;;;;;4.48;73.91;99342.03;350201;28;2652;-79
2023/04/06 00:12:59;;;;;;;283.60;81.10;;;;;;;4.48;74.33;99348.06;345248;28;3311;-79
2023/04/06 00:13:10;;;;;;;282.27;80.07;;;;;;;4.50;74.37;99340.25;348739;28;1298;-78
2023/04/06 00:13:20;;;;;;;282.85;79.88;;;;;;;4.47;74.08;99335.13;347897;28;3194;-79
2023/04/06 00:13:31;;;;;;;286.08;80.13;;;;;;;4.46;74.09;99343.78;350322;28;895;-78
2023/04/06 00:13:42;;;;;;;286.77;80.00;;;;;;;4.47;74.02;99343.75;347895;28;2745;-79
2023/04/06 00:13:52;;;;;;;285.77;79.13;;;;;;;4.45;74.40;99336.91;345526;28;4191;-80
2023/04/06 00:14:04;;;;;;;285.40;79.63;;;;;;;4.38;74.21;99335.31;347195;28;3156;-79
2023/04/06 00:14:17;;;;;;;285.50;79.82;;;;;;;4.40;74.01;99343.91;347432;28;3309;-79
2023/04/06 00:14:28;;;;;;;282.20;77.88;;;;;;;4.38;74.28;99348.28;344781;28;4124;-80
2023/04/06 00:14:38;;;;;;;280.73;76.43;;;;;;;4.38;74.24;99343.94;347181;28;3535;-80
2023/04/06 00:14:49;;;;;;;281.55;78.00;;;;;;;4.33;74.24;99338.84;344482;28;3259;-79
2023/04/06 00:15:01;;;;;;;286.90;80.40;;;;;;;4.40;74.30;99338.75;344751;28;3622;-79
2023/04/06 00:15:12;;;;;;;286.33;80.10;;;;;;;4.41;74.62;99348.22;343093;28;3866;-79
2023/04/06 00:15:23;;;;;;;284.30;78.32;;;;;;;4.42;74.31;99334.38;347523;28;1632;-78
2023/04/06 00:15:34;;;;;;;281.48;77.18;;;;;;;4.35;73.98;99342.28;343514;28;4056;-79
2023/04/06 00:15:44;;;;;;;281.67;77.65;;;;;;;4.32;74.09;99336.34;348082;28;2869;-79
2023/04/06 00:15:55;;;;;;;280.37;77.83;;;;;;;4.37;73.97;99343.97;343685;28;4054;-79
2023/04/06 00:16:06;;;;;;;280.77;78.63;;;;;;;4.37;73.65;99343.97;345305;28;2899;-79
2023/04/06 00:16:16;;;;;;;281.75;79.25;;;;;;;4.28;73.61;99327.78;345105;28;3118;-80
2023/04/06 00:16:28;;;;;;;283.57;79.23;;;;;;;4.37;74.17;99339.66;347772;28;1081;-79
2023/04/06 00:16:38;;;;;;;283.98;78.70;;;;;;;4.31;74.00;99325.13;347547;28;3112;-80
2023/04/06 00:16:49;;;;;;;284.00;79.27;;;;;;;4.43;74.13;99349.91;351124;28;2948;-79
2023/04/06 00:17:00;;;;;;;284.15;79.53;;;;;;;4.40;74.10;99336.16;349576;28;3254;-79
2023/04/06 00:17:11;;;;;;;284.27;80.03;;;;;;;4.45;74.04;99342.09;349672;28;2956;-79
2023/04/06 00:17:21;;;;;;;283.02;79.63;;;;;;;4.47;74.23;99342.91;348223;28;3207;-79
2023/04/06 00:17:31;;;;;;;283.67;79.83;;;;;;;4.47;74.00;99350.69;345350;28;3048;-79
2023/04/06 00:17:42;;;;;;;282.42;78.85;;;;;;;4.46;74.04;99338.63;344446;28;3296;-79
2023/04/06 00:17:53;;;;;;;282.58;79.28;;;;;;;4.31;74.12;99332.88;345888;28;1309;-80
2023/04/06 00:18:03;;;;;;;285.93;80.50;;;;;;;4.32;74.13;99342.38;343809;28;3035;-78
2023/04/06 00:18:15;;;;;;;285.92;80.82;;;;;;;4.33;74.13;99336.28;343544;28;809;-80
2023/04/06 00:18:26;;;;;;;285.27;80.25;;;;;;;4.33;74.06;99344.03;344085;28;4217;-79
2023/04/06 00:18:37;;;;;;;281.25;78.55;;;;;;;4.33;74.16;99344.03;345674;28;3345;-79
2023/04/06 00:18:47;;;;;;;280.02;77.25;;;;;;;4.31;74.00;99350.16;341660;28;3397;-79
2023/04/06 00:18:58;;;;;;;281.40;76.90;;;;;;;4.25;74.00;99335.59;343290;28;1194;-80
2023/04/06 00:19:08;;;;;;;283.90;77.60;;;;;;;4.25;74.11;99340.78;339000;28;4282;-78
2023/04/06 00:19:19;;;;;;;288.23;79.67;;;;;;;4.30;74.23;99341.53;341286;28;1218;-79
2023/04/06 00:19:29;;;;;;;285.70;79.03;;;;;;;4.30;74.44;99343.28;341191;28;3784;-79
2023/04/06 00:19:40;;;;;;;286.20;80.07;;;;;;;4.30;74.37;99338.94;343321;28;2434;-78
2023/04/06 00:19:51;;;;;;;284.95;80.22;;;;;;;4.27;73.83;99338.16;338416;28;4045;-78
2023/04/06 00:20:01;;;;;;;286.60;81.22;;;;;;;4.23;73.97;99336.50;343200;28;1233;-80
2023/04/06 00:20:12;;;;;;;285.47;80.20;;;;;;;4.28;74.20;99343.31;334307;29;3884;-79
2023/04/06 00:20:22;;;;;;;286.27;80.75;;;;;;;4.28;74.47;99343.31;333870;29;3552;-79
2023/04/06 00:20:33;;;;;;;285.73;80.33;;;;;;;4.32;73.97;99347.53;333571;29;2734;-78
2023/04/06 00:20:43;;;;;;;286.30;80.90;;;;;;;4.37;74.22;99349.16;334211;29;3208;-78
2023/04/06 00:20:53;;;;;;;285.37;80.03;;;;;;;4.31;74.11;99339.81;337534;29;3877;-78
2023/04/06 00:21:05;;;;;;;285.58;80.40;;;;;;;4.27;74.06;99339.00;334264;29;3326;-78
2023/04/06 00:21:15;;;;;;;283.90;78.80;;;;;;;4.25;73.97;99345.09;334716;29;3913;-78
2023/04/06 00:21:26;;;;;;;283.63;78.85;;;;;;;4.23;73.96;99336.50;336506;29;3239;-78
2023/04/06 00:21:37;;;;;;;281.50;77.53;;;;;;;4.19;73.98;99334.88;334857;29;2713;-79
2023/04/06 00:21:47;;;;;;;282.83;79.83;;;;;;;4.31;74.12;99343.25;332364;29;4564;-79
2023/04/06 00:21:57;;;;;;;282.40;79.25;;;;;;;4.30;74.24;99338.94;335710;29;1282;-80
2023/04/06 00:22:08;;;;;;;286.10;80.80;;;;;;;4.32;74.26;99346.69;331696;29;4159;-80
2023/04/06 00:22:18;;;;;;;285.05;78.40;;;;;;;4.33;74.14;99336.28;330573;29;3335;-80
2023/04/06 00:22:29;;;;;;;290.47;79.93;;;;;;;4.25;73.96;99329.56;330324;29;1867;-79
2023/04/06 00:22:39;;;;;;;297.10;81.82;;;;;;;4.28;73.82;99335.53;335783;29;1237;-79
2023/04/06 00:22:50;;;;;;;296.63;83.27;;;;;;;4.16;74.19;99325.41;332633;29;3466;-80
2023/04/06 00:23:00;;;;;;;291.42;81.50;;;;;;;4.19;73.98;99329.69;325614;30;1586;-80
2023/04/06 00:23:10;;;;;;;290.83;80.93;;;;;;;4.22;74.13;99340.84;325063;30;3902;-80
2023/04/06 00:23:21;;;;;;;291.93;80.73;;;;;;;4.15;74.14;99335.81;328311;29;2170;-78
2023/04/06 00:23:31;;;;;;;290.67;80.78;;;;;;;4.09;74.88;99329.00;324909;30;5697;-79
2023/04/06 00:23:42;;;;;;;285.77;79.73;;;;;;;4.12;74.84;99338.44;325721;30;888;-78
2023/04/06 00:23:52;;;;;;;284.87;79.77;;;;;;;4.13;75.12;99330.66;324099;30;3909;-79
2023/04/06 00:24:03;;;;;;;283.43;78.83;;;;;;;4.13;75.01;99333.25;325199;30;2471;-79
2023/04/06 00:24:14;;;;;;;282.95;79.18;;;;;;;4.16;74.72;99340.94;317386;30;4956;-79
2023/04/06 00:24:25;;;;;;;281.80;77.93;;;;;;;4.14;74.66;99332.34;319084;30;1610;-78
2023/04/06 00:24:35;;;;;;;284.63;79.77;;;;;;;4.15;73.85;99328.03;318105;30;4778;-78
2023/04/06 00:24:46;;;;;;;284.23;79.45;;;;;;;4.25;74.18;99334.75;319739;30;1366;-79
2023/04/06 00:24:56;;;;;;;288.50;82.60;;;;;;;4.24;74.47;99343.41;311864;31;4225;-79
2023/04/06 00:25:07;;;;;;;287.63;82.10;;;;;;;4.19;73.79;99327.09;315400;31;2706;-78
2023/04/06 00:25:17;;;;;;;287.90;81.97;;;;;;;4.22;74.46;99338.25;313010;30;3285;-78
2023/04/06 00:25:28;;;;;;;285.97;80.93;;;;;;;4.22;74.53;99339.97;314347;31;2872;-79
2023/04/06 00:25:38;;;;;;;285.35;80.78;;;;;;;4.24;74.47;99343.41;313474;31;4329;-78
2023/04/06 00:25:49;;;;;;;285.97;81.40;;;;;;;4.21;74.31;99333.09;313415;31;3169;-78
2023/04/06 00:25:59;;;;;;;286.92;80.78;;;;;;;4.24;74.39;99338.22;312765;31;3352;-78
2023/04/06 00:26:13;;;;;;;286.10;80.70;;;;;;;4.23;74.64;99337.38;312809;31;2945;-79
2023/04/06 00:26:23;;;;;;;286.58;81.70;;;;;;;4.27;74.41;99333.84;311737;31;3561;-80
2023/04/06 00:26:34;;;;;;;287.90;82.87;;;;;;;4.29;74.14;99332.06;308794;31;4033;-78
2023/04/06 00:26:44;;;;;;;288.95;83.05;;;;;;;4.33;74.37;99338.03;306098;32;3510;-78
2023/04/06 00:26:55;;;;;;;292.25;84.05;;;;;;;4.31;74.23;99340.66;301539;32;2854;-78
2023/04/06 00:27:06;;;;;;;294.90;84.53;;;;;;;4.25;74.41;99330.41;300839;32;3213;-78
2023/04/06 00:27:16;;;;;;;296.77;83.57;;;;;;;4.28;74.38;99325.19;302501;32;4189;-78
2023/04/06 00:27:27;;;;;;;294.98;82.22;;;;;;;4.27;74.32;99326.06;298317;32;3156;-79
2023/04/06 00:27:38;;;;;;;295.20;81.47;;;;;;;4.25;74.54;99330.41;298015;32;4344;-79
2023/04/06 00:27:48;;;;;;;292.98;82.13;;;;;;;4.21;74.68;99338.28;298853;32;5676;-79
2023/04/06 00:27:59;;;;;;;289.45;81.22;;;;;;;4.22;74.91;99335.66;298546;32;4032;-79
2023/04/06 00:28:09;;;;;;;286.77;81.47;;;;;;;4.22;74.53;99325.28;296858;33;3462;-78
2023/04/06 00:28:25;;;;;;;284.73;80.40;;;;;;;4.25;74.32;99333.00;296142;32;4297;-78
2023/04/06 00:28:35;;;;;;;282.70;79.65;;;;;;;4.24;74.79;99335.63;296826;32;2694;-78
2023/04/06 00:28:45;;;;;;;284.50;80.70;;;;;;;4.22;74.73;99329.63;291027;33;3308;-78
2023/04/06 00:28:56;;;;;;;288.70;82.03;;;;;;;4.23;74.42;99329.59;291897;33;4170;-78
2023/04/06 00:29:06;;;;;;;294.58;84.35;;;;;;;4.23;74.62;99332.19;287944;33;4012;-78
2023/04/06 00:29:17;;;;;;;295.73;84.70;;;;;;;4.21;74.28;99331.34;285270;34;5708;-79
2023/04/06 00:29:27;;;;;;;293.65;83.57;;;;;;;4.22;74.59;99330.47;280484;35;4040;-79
2023/04/06 00:29:39;;;;;;;292.13;82.53;;;;;;;4.20;74.49;99324.47;283114;34;4522;-79
2023/04/06 00:29:50;;;;;;;293.52;83.45;;;;;;;4.17;74.02;99321.94;280657;34;5454;-81
2023/04/06 00:30:00;;;;;;;294.77;84.65;;;;;;;4.23;74.22;99332.19;283458;34;3529;-80
2023/04/06 00:30:11;;;;;;;294.17;83.60;;;;;;;4.27;74.19;99339.00;280424;34;4264;-79
2023/04/06 00:30:21;;;;;;;289.40;81.57;;;;;;;4.27;74.59;99331.25;280635;35;3628;-79
2023/04/06 00:30:32;;;;;;;289.77;81.60;;;;;;;4.24;74.30;99328.72;278478;35;3927;-79
2023/04/06 00:30:42;;;;;;;287.48;81.40;;;;;;;4.29;74.80;99333.81;278811;35;3616;-80
2023/04/06 00:30:54;;;;;;;289.43;82.07;;;;;;;4.28;74.16;99329.50;275821;35;5093;-80
2023/04/06 00:31:05;;;;;;;286.95;80.85;;;;;;;4.27;74.37;99338.16;276739;35;5367;-79
2023/04/06 00:31:15;;;;;;;289.40;82.73;;;;;;;4.24;74.50;99333.03;269686;36;4062;-79
2023/04/06 00:31:27;;;;;;;291.77;83.90;;;;;;;4.29;74.44;99333.81;272570;35;7080;-79
2023/04/06 00:31:37;;;;;;;291.85;84.80;;;;;;;4.30;74.31;99333.78;273330;35;7721;-79
2023/04/06 00:31:48;;;;;;;291.13;83.87;;;;;;;4.28;74.28;99327.78;274399;35;7039;-78
2023/04/06 00:31:58;;;;;;;290.27;83.90;;;;;;;4.27;74.50;99328.66;271808;36;5469;-79
2023/04/06 00:32:09;;;;;;;292.07;84.30;;;;;;;4.29;74.39;99332.06;273233;35;6575;-79
2023/04/06 00:32:19;;;;;;;290.85;84.75;;;;;;;4.26;74.61;99326.94;271225;36;4572;-79
2023/04/06 00:32:30;;;;;;;292.33;85.53;;;;;;;4.31;74.20;99332.03;269353;36;4406;-79
2023/04/06 00:32:41;;;;;;;292.35;86.22;;;;;;;4.27;74.58;99326.06;265145;36;4510;-79
2023/04/06 00:32:51;;;;;;;295.10;86.20;;;;;;;4.28;73.92;99325.19;261050;37;6628;-79
2023/04/06 00:34:33;;;;;;;274.51;73.45;;;;;;;4.12;74.33;99316.00;2497590;27;20477;-78
2023/04/06 00:34:43;;;;;;;278.70;76.70;;;;;;;4.15;74.86;99325.44;350967;28;3439;-79
2023/04/06 00:34:54;;;;;;;281.17;78.05;;;;;;;4.14;74.94;99329.78;348229;28;2856;-79
2023/04/06 00:35:05;;;;;;;283.37;79.33;;;;;;;4.14;74.71;99322.00;345151;28;4209;-78
2023/04/06 00:35:18;;;;;;;280.90;77.70;;;;;;;4.05;74.57;99319.59;346708;28;2926;-78
2023/04/06 00:35:29;;;;;;;279.05;77.28;;;;;;;4.11;74.73;99322.06;348348;28;3352;-78
2023/04/06 00:35:39;;;;;;;282.05;78.45;;;;;;;4.10;74.56;99319.50;347719;28;3794;-78
2023/04/06 00:35:50;;;;;;;285.17;79.47;;;;;;;4.10;74.49;99325.53;349792;28;1362;-79
2023/04/06 00:36:00;;;;;;;285.20;79.28;;;;;;;4.16;74.54;99327.16;349147;28;4219;-77
2023/04/06 00:36:11;;;;;;;285.77;79.53;;;;;;;4.11;74.30;99319.47;348887;28;3485;-79
2023/04/06 00:36:21;;;;;;;283.33;77.85;;;;;;;4.19;74.63;99327.94;347688;28;4081;-78
2023/04/06 00:36:32;;;;;;;285.23;79.57;;;;;;;4.22;75.05;99335.66;350951;28;3444;-78
2023/04/06 00:36:42;;;;;;;283.77;79.97;;;;;;;4.19;74.50;99325.34;347568;28;3941;-78
2023/04/06 00:36:53;;;;;;;284.13;81.00;;;;;;;4.12;74.80;99318.59;347022;28;3563;-79
2023/04/06 00:37:03;;;;;;;284.98;80.03;;;;;;;4.05;74.54;99304.06;343633;28;3787;-77
2023/04/06 00:37:13;;;;;;;287.73;80.37;;;;;;;4.18;75.00;99341.78;348107;28;3149;-79
2023/04/06 00:37:24;;;;;;;288.13;79.93;;;;;;;4.14;74.73;99322.00;347865;28;4155;-78
2023/04/06 00:37:34;;;;;;;290.33;82.20;;;;;;;4.11;74.71;99319.47;346847;28;4987;-78
2023/04/06 00:37:46;;;;;;;287.35;80.00;;;;;;;4.20;74.77;99331.38;346499;28;4038;-78
2023/04/06 00:37:56;;;;;;;288.77;80.10;;;;;;;4.21;74.54;99326.19;344775;28;3316;-78
2023/04/06 00:38:07;;;;;;;286.92;77.93;;;;;;;4.24;74.74;99327.84;346771;28;2978;-78
2023/04/06 00:38:17;;;;;;;289.63;80.30;;;;;;;4.24;74.70;99331.31;344741;28;3117;-79
2023/04/06 00:38:28;;;;;;;287.05;79.90;;;;;;;4.26;74.52;99329.53;344735;28;1100;-78
2023/04/06 00:38:38;;;;;;;285.67;80.43;;;;;;;4.26;74.34;99323.50;344757;28;3218;-78
2023/04/06 00:38:48;;;;;;;285.33;79.75;;;;;;;4.26;74.36;99332.13;345519;28;2393;-79
2023/04/06 00:38:59;;;;;;;285.73;80.40;;;;;;;4.26;74.47;99326.09;341621;28;4145;-77
2023/04/06 00:39:10;;;;;;;283.77;78.72;;;;;;;4.31;74.41;99322.53;345507;28;2654;-78
2023/04/06 00:39:21;;;;;;;284.00;78.83;;;;;;;4.28;74.30;99329.50;339828;28;4237;-78
2023/04/06 00:39:31;;;;;;;282.02;77.50;;;;;;;4.25;74.11;99330.41;345476;28;2978;-78
2023/04/06 00:39:42;;;;;;;284.23;78.90;;;;;;;4.23;74.23;99323.56;344160;28;4075;-78
2023/04/06 00:39:53;;;;;;;288.13;79.38;;;;;;;4.25;74.24;99335.59;342405;28;4236;-78
2023/04/06 00:40:03;;;;;;;287.80;79.40;;;;;;;4.22;74.42;99317.53;345381;28;5005;-78
2023/04/06 00:40:14;;;;;;;288.03;78.57;;;;;;;4.28;74.29;99329.50;347107;28;3825;-78
2023/04/06 00:40:24;;;;;;;284.92;78.93;;;;;;;4.27;74.48;99322.63;345123;28;3299;-78
2023/04/06 00:40:35;;;;;;;284.77;78.90;;;;;;;4.29;74.61;99332.06;346100;28;777;-78
2023/04/06 00:40:45;;;;;;;285.48;80.47;;;;;;;4.19;74.38;99315.00;340476;28;3967;-79
2023/04/06 00:40:56;;;;;;;288.60;80.57;;;;;;;4.09;74.41;99308.28;342472;28;2456;-77
2023/04/06 00:41:06;;;;;;;290.47;81.27;;;;;;;4.12;74.22;99323.75;340829;28;4019;-77
2023/04/06 00:41:17;;;;;;;290.87;80.30;;;;;;;4.11;74.17;99319.47;344640;28;1246;-78
2023/04/06 00:41:28;;;;;;;285.17;78.95;;;;;;;4.12;74.44;99328.09;340104;28;3781;-79
2023/04/06 00:41:39;;;;;;;283.33;78.80;;;;;;;4.04;74.68;99310.13;346257;28;813;-78
2023/04/06 00:41:51;;;;;;;286.02;79.47;;;;;;;3.96;74.89;99299.03;340387;28;3920;-78
2023/04/06 00:42:01;;;;;;;288.08;78.68;;;;;;;4.07;74.48;99320.41;344389;28;2690;-78
2023/04/06 00:42:14;;;;;;;286.60;79.07;;;;;;;4.07;74.93;99315.22;343491;28;4348;-78
2023/04/06 00:42:25;;;;;;;284.15;78.85;;;;;;;4.03;74.90;99323.09;343187;28;2395;-78
2023/04/06 00:42:36;;;;;;;283.35;79.70;;;;;;;4.00;74.97;99317.09;340620;28;3314;-77
2023/04/06 00:42:46;;;;;;;281.70;78.10;;;;;;;3.97;74.99;99306.78;345153;28;2957;-78
2023/04/06 00:42:56;;;;;;;287.90;80.10;;;;;;;4.03;74.87;99316.16;340152;28;5602;-76
2023/04/06 00:43:08;;;;;;;288.53;79.07;;;;;;;4.10;74.63;99324.69;341053;28;3054;-76
2023/04/06 00:43:19;;;;;;;287.65;78.88;;;;;;;4.10;74.90;99320.34;338762;29;3146;-78
2023/04/06 00:43:29;;;;;;;284.43;78.80;;;;;;;4.13;75.24;99327.22;340528;29;2421;-78
2023/04/06 00:43:40;;;;;;;283.80;78.47;;;;;;;4.14;74.88;99324.59;338957;28;3295;-78
2023/04/06 00:43:50;;;;;;;288.70;79.40;;;;;;;4.15;74.53;99323.72;341737;28;2531;-79
2023/04/06 00:44:01;;;;;;;289.35;79.43;;;;;;;4.04;74.63;99304.94;338473;28;4345;-78
2023/04/06 00:44:11;;;;;;;293.77;81.07;;;;;;;4.14;74.67;99332.34;342231;28;2461;-77
2023/04/06 00:44:22;;;;;;;291.42;80.22;;;;;;;4.14;74.48;99324.59;337329;29;3255;-79
2023/04/06 00:44:32;;;;;;;292.37;80.57;;;;;;;4.12;74.66;99318.59;331715;29;2669;-78
2023/04/06 00:44:42;;;;;;;289.25;80.15;;;;;;;4.02;74.71;99306.69;332157;29;3275;-79
2023/04/06 00:44:57;;;;;;;290.50;80.90;;;;;;;4.09;74.81;99313.47;333779;29;1633;-78
2023/04/06 00:45:08;;;;;;;289.42;80.18;;;;;;;4.06;74.43;99321.28;328025;29;4216;-79
2023/04/06 00:45:18;;;;;;;286.92;79.72;;;;;;;4.07;74.78;99320.41;329199;30;983;-79
2023/04/06 00:45:29;;;;;;;285.80;81.10;;;;;;;4.04;74.63;99325.66;325101;30;3228;-79
2023/04/06 00:45:39;;;;;;;284.40;81.25;;;;;;;4.06;74.85;99323.03;325605;30;3563;-79
2023/04/06 00:45:50;;;;;;;285.20;81.57;;;;;;;4.03;75.03;99313.59;326406;30;5313;-79
2023/04/06 00:46:00;;;;;;;284.67;80.90;;;;;;;4.04;74.85;99309.25;327928;30;884;-79
2023/04/06 00:46:11;;;;;;;290.20;83.93;;;;;;;3.99;74.55;99312.78;325442;29;3944;-79
2023/04/06 00:46:21;;;;;;;292.25;84.32;;;;;;;4.14;74.89;99332.34;326462;30;3346;-79
2023/04/06 00:46:32;;;;;;;299.83;88.00;;;;;;;4.10;74.65;99314.31;326461;30;1711;-79
2023/04/06 00:46:42;;;;;;;297.33;87.35;;;;;;;4.15;74.60;99318.53;326727;30;3521;-79
2023/04/06 00:46:52;;;;;;;298.00;89.27;;;;;;;4.15;74.33;99317.69;325294;30;2237;-79
2023/04/06 00:47:03;;;;;;;294.35;89.45;;;;;;;4.15;74.36;99326.28;326116;30;2920;-80
2023/04/06 00:47:13;;;;;;;297.23;91.97;;;;;;;4.17;74.60;99321.09;322979;30;3352;-79
2023/04/06 00:47:27;;;;;;;298.20;91.80;;;;;;;4.15;74.23;99320.25;325063;30;3832;-79
2023/04/06 00:47:37;;;;;;;298.02;90.00;;;;;;;4.20;74.36;99321.88;322521;30;2654;-79
2023/04/06 00:47:47;;;;;;;296.87;88.50;;;;;;;4.17;74.53;99314.19;321362;30;3109;-80
2023/04/06 00:47:58;;;;;;;294.93;87.90;;;;;;;4.20;74.58;99321.03;316509;30;3295;-78
2023/04/06 00:48:09;;;;;;;294.75;89.15;;;;;;;4.20;74.32;99324.47;317190;30;4079;-78
2023/04/06 00:48:19;;;;;;;296.57;89.50;;;;;;;4.18;74.61;99323.66;319479;30;3153;-79
2023/04/06 00:48:31;;;;;;;297.30;89.15;;;;;;;4.20;74.78;99316.72;319326;30;4232;-78
2023/04/06 00:48:41;;;;;;;299.88;89.10;;;;;;;4.23;74.26;99327.00;319987;30;3254;-78
2023/04/06 00:48:51;;;;;;;302.80;89.85;;;;;;;4.20;74.65;99321.88;316659;30;3886;-78
2023/04/06 00:49:02;;;;;;;303.30;91.40;;;;;;;4.17;74.50;99316.75;321131;30;3444;-79
2023/04/06 00:49:12;;;;;;;299.52;89.80;;;;;;;4.20;74.77;99318.44;314386;31;4058;-78
2023/04/06 00:49:23;;;;;;;296.13;89.80;;;;;;;4.21;74.55;99320.16;311957;31;3709;-79
2023/04/06 00:49:34;;;;;;;291.13;86.93;;;;;;;4.23;74.86;99332.19;312072;31;3956;-78
2023/04/06 00:49:44;;;;;;;292.42;88.20;;;;;;;4.22;74.72;99314.09;313990;31;3430;-79
2023/04/06 00:49:55;;;;;;;293.57;89.10;;;;;;;4.21;74.73;99315.81;310103;31;4075;-78
2023/04/06 00:50:05;;;;;;;295.55;89.30;;;;;;;4.21;74.94;99307.19;308460;31;1308;-78
2023/04/06 00:50:17;;;;;;;294.35;88.65;;;;;;;4.25;74.69;99319.22;304754;31;3995;-79
2023/04/06 00:50:27;;;;;;;295.75;89.80;;;;;;;4.25;75.03;99314.88;308006;31;2195;-79
2023/04/06 00:50:38;;;;;;;295.05;90.35;;;;;;;4.21;74.61;99322.75;306123;31;5141;-78
2023/04/06 00:50:48;;;;;;;296.80;91.10;;;;;;;4.15;74.68;99318.53;307163;32;2817;-78
2023/04/06 00:51:01;;;;;;;298.05;92.05;;;;;;;4.06;74.89;99307.50;300468;32;3930;-78
2023/04/06 00:51:12;;;;;;;302.38;91.68;;;;;;;4.12;74.93;99320.31;298135;32;3674;-79
2023/04/06 00:51:22;;;;;;;306.33;92.87;;;;;;;4.01;75.00;99310.16;293336;33;4233;-79
2023/04/06 00:51:33;;;;;;;306.23;91.85;;;;;;;3.92;74.76;99306.03;293118;33;3964;-78
2023/04/06 00:51:43;;;;;;;304.73;91.33;;;;;;;3.97;75.57;99324.06;293149;33;4605;-79
2023/04/06 00:51:54;;;;;;;301.17;89.97;;;;;;;3.97;75.54;99316.28;294114;33;4784;-79
2023/04/06 00:52:04;;;;;;;301.52;90.32;;;;;;;3.93;75.63;99312.91;289454;34;4154;-79
2023/04/06 00:52:15;;;;;;;297.67;89.13;;;;;;;3.94;75.42;99308.56;290308;33;4090;-80
2023/04/06 00:52:26;;;;;;;294.50;88.18;;;;;;;3.99;75.55;99311.94;289223;33;3216;-78
2023/04/06 00:52:36;;;;;;;291.33;87.32;;;;;;;4.02;75.54;99322.22;290889;34;3513;-78
2023/04/06 00:52:46;;;;;;;290.87;88.47;;;;;;;4.03;75.41;99318.75;288482;33;4117;-79
2023/04/06 00:52:58;;;;;;;293.30;90.53;;;;;;;4.06;75.60;99318.72;289061;33;5375;-78
2023/04/06 00:53:08;;;;;;;295.52;92.07;;;;;;;4.05;75.56;99316.16;285151;33;4904;-79
2023/04/06 00:53:19;;;;;;;302.00;94.07;;;;;;;4.05;75.82;99322.19;284196;34;3412;-79